Time;durP1;ratioP1;P1;durP2;ratioP2;P2;SDS_P1;SDS_P2;PMS_P1;PMS_P2;Temp;Humidity;BMP_temperature;BMP_pressure;BME280_temperature;BME280_humidity;BME280_pressure;Samples;Min_cycle;Max_cycle;Signal;HPM_P1;HPM_P2
2021/01/08 00:01:40;;;;;;;24.57;15.80;;;2.80;99.90;;;;;;5032945;28;20637;-74
2021/01/08 00:04:06;;;;;;;23.53;15.13;;;3.00;99.90;;;;;;5033631;28;20222;-75
2021/01/08 00:06:32;;;;;;;25.20;17.60;;;2.90;99.90;;;;;;5033436;28;20406;-75
2021/01/08 00:08:57;;;;;;;22.23;16.20;;;2.90;99.90;;;;;;5032445;28;20198;-75
2021/01/08 00:11:24;;;;;;;25.13;17.60;;;2.90;99.90;;;;;;5033288;28;20406;-75
2021/01/08 00:13:52;;;;;;;24.67;16.63;;;2.80;99.90;;;;;;5033143;28;20209;-75
2021/01/08 00:16:17;;;;;;;28.27;18.73;;;2.80;99.90;;;;;;5033346;28;20450;-75
2021/01/08 00:18:44;;;;;;;22.30;17.43;;;2.90;99.90;;;;;;5033354;28;20406;-75
2021/01/08 00:21:10;;;;;;;29.70;18.97;;;2.70;99.90;;;;;;5033339;28;20171;-75
2021/01/08 00:23:35;;;;;;;28.03;18.33;;;2.60;99.90;;;;;;5033159;28;20425;-74
2021/01/08 00:26:01;;;;;;;30.57;18.43;;;2.60;99.90;;;;;;5032883;28;20171;-74
2021/01/08 00:28:27;;;;;;;27.37;18.30;;;2.60;99.90;;;;;;5033239;28;20665;-74
2021/01/08 00:30:52;;;;;;;29.70;18.43;;;2.70;99.90;;;;;;5031534;28;20653;-75
2021/01/08 00:33:18;;;;;;;27.17;18.53;;;2.70;99.90;;;;;;5033180;28;20218;-74
2021/01/08 00:35:44;;;;;;;26.57;17.57;;;2.60;99.90;;;;;;5033378;28;20254;-74
2021/01/08 00:38:09;;;;;;;27.00;18.10;;;2.60;99.90;;;;;;5032983;28;20711;-75
2021/01/08 00:40:35;;;;;;;22.90;15.63;;;2.70;99.90;;;;;;5032505;28;20175;-74
2021/01/08 00:43:01;;;;;;;26.73;17.00;;;2.60;99.90;;;;;;5032851;28;20931;-74
2021/01/08 00:45:27;;;;;;;28.57;18.67;;;2.60;99.90;;;;;;5033125;28;20412;-75
2021/01/08 00:47:52;;;;;;;29.50;17.93;;;2.60;99.90;;;;;;5011654;28;638873;-75
2021/01/08 00:50:18;;;;;;;27.27;16.77;;;2.60;99.90;;;;;;5034055;28;20254;-75
2021/01/08 00:52:44;;;;;;;29.20;18.50;;;2.60;99.90;;;;;;5033773;28;20188;-75
2021/01/08 00:55:10;;;;;;;21.70;14.93;;;2.50;99.90;;;;;;5033871;28;20425;-75
2021/01/08 00:57:36;;;;;;;24.50;15.33;;;2.50;99.90;;;;;;5033790;28;20199;-75
2021/01/08 01:00:07;;;;;;;23.23;16.23;;;2.50;99.90;;;;;;5033537;28;20914;-74
2021/01/08 01:02:33;;;;;;;25.30;15.50;;;2.40;99.90;;;;;;5033315;28;20163;-75
2021/01/08 01:04:59;;;;;;;24.37;16.43;;;2.50;99.90;;;;;;5033710;28;20407;-75
2021/01/08 01:07:24;;;;;;;20.83;15.73;;;2.50;99.90;;;;;;5033374;28;20434;-75
2021/01/08 01:09:50;;;;;;;22.27;16.20;;;2.50;99.90;;;;;;5033599;28;20624;-75
2021/01/08 01:12:16;;;;;;;18.57;13.80;;;2.50;99.90;;;;;;5033402;28;20536;-75
2021/01/08 01:14:41;;;;;;;16.77;12.33;;;2.50;99.90;;;;;;5033731;28;20250;-75
2021/01/08 01:17:07;;;;;;;17.40;12.80;;;2.60;99.90;;;;;;5032674;28;20710;-75
2021/01/08 01:19:33;;;;;;;22.03;14.70;;;2.70;99.90;;;;;;5033574;28;20168;-75
2021/01/08 01:21:58;;;;;;;19.10;13.10;;;2.80;99.90;;;;;;5033101;28;20538;-75
2021/01/08 01:24:24;;;;;;;16.67;11.73;;;2.90;99.90;;;;;;5033148;28;20237;-75
2021/01/08 01:26:54;;;;;;;17.30;12.23;;;2.90;99.90;;;;;;5033159;28;20262;-75
2021/01/08 01:29:20;;;;;;;18.23;12.53;;;2.90;99.90;;;;;;5065528;28;20175;-75
2021/01/08 01:31:46;;;;;;;15.80;10.73;;;2.80;99.90;;;;;;5065082;28;20414;-75
2021/01/08 01:34:11;;;;;;;18.47;11.87;;;2.80;99.90;;;;;;5065413;28;20508;-74
2021/01/08 01:36:37;;;;;;;16.83;11.60;;;2.80;99.90;;;;;;5033334;28;20198;-75
2021/01/08 01:39:03;;;;;;;12.77;10.67;;;2.90;99.90;;;;;;5032010;28;20258;-75
2021/01/08 01:41:28;;;;;;;15.27;11.27;;;2.90;99.90;;;;;;5031806;28;20175;-75
2021/01/08 01:43:54;;;;;;;18.40;12.20;;;2.80;99.90;;;;;;5033040;28;20187;-75
2021/01/08 01:46:23;;;;;;;15.70;10.50;;;2.80;99.90;;;;;;5032748;28;20264;-74
2021/01/08 01:48:52;;;;;;;14.17;11.20;;;2.80;99.90;;;;;;5032302;28;20175;-75
2021/01/08 01:51:20;;;;;;;13.90;11.80;;;2.80;99.90;;;;;;5032780;28;20421;-74
2021/01/08 01:53:48;;;;;;;14.10;10.60;;;2.80;99.90;;;;;;5033170;28;20472;-74
2021/01/08 01:56:14;;;;;;;23.57;12.57;;;2.60;99.90;;;;;;5032771;28;20457;-74
2021/01/08 01:58:40;;;;;;;15.00;10.77;;;2.70;99.90;;;;;;5032703;28;20411;-74
2021/01/08 02:01:06;;;;;;;18.47;12.20;;;2.80;99.90;;;;;;5030810;28;20421;-75
2021/01/08 02:03:37;;;;;;;16.27;12.20;;;2.70;99.90;;;;;;5032670;28;20281;-74
2021/01/08 02:06:07;;;;;;;15.90;10.90;;;2.70;99.90;;;;;;5032514;28;20406;-75
2021/01/08 02:08:35;;;;;;;13.63;10.60;;;2.80;99.90;;;;;;5031532;28;20410;-75
2021/01/08 02:11:07;;;;;;;16.43;11.60;;;2.80;99.90;;;;;;5032358;28;20402;-75
2021/01/08 02:13:59;;;;;;;15.00;12.00;;;2.80;99.90;;;;;;5032471;28;20820;-74
2021/01/08 02:16:28;;;;;;;13.47;10.60;;;2.70;99.90;;;;;;5031677;28;20536;-75
2021/01/08 02:18:54;;;;;;;15.23;10.83;;;2.60;99.90;;;;;;5032413;28;20884;-74
2021/01/08 02:21:32;;;;;;;16.70;12.20;;;2.60;99.90;;;;;;5032236;28;20410;-74
2021/01/08 02:24:07;;;;;;;18.07;12.47;;;2.50;99.90;;;;;;5032572;28;20453;-75
2021/01/08 02:26:33;;;;;;;15.13;11.90;;;2.50;99.90;;;;;;5032644;28;20978;-74
2021/01/08 02:29:00;;;;;;;15.33;12.23;;;2.50;99.90;;;;;;5064383;28;20453;-74
2021/01/08 02:31:26;;;;;;;16.60;12.07;;;2.50;99.90;;;;;;5031755;28;20460;-74
2021/01/08 02:33:53;;;;;;;14.77;11.63;;;2.50;99.90;;;;;;5064457;28;20463;-75
2021/01/08 02:36:19;;;;;;;13.53;10.67;;;2.50;99.90;;;;;;5032332;28;20453;-74
2021/01/08 02:38:48;;;;;;;17.17;10.80;;;2.60;99.90;;;;;;5032265;28;20406;-74
2021/01/08 02:41:15;;;;;;;17.37;11.60;;;2.70;99.90;;;;;;5031521;28;20460;-75
2021/01/08 02:43:44;;;;;;;15.07;10.43;;;2.60;99.90;;;;;;5032265;28;20423;-74
2021/01/08 02:46:09;;;;;;;13.50;9.90;;;2.70;99.90;;;;;;5031900;28;20418;-75
2021/01/08 02:48:35;;;;;;;10.80;9.20;;;2.60;99.90;;;;;;5032359;28;20440;-74
2021/01/08 02:51:02;;;;;;;12.90;10.53;;;2.70;99.90;;;;;;5031971;28;20176;-74
2021/01/08 02:53:29;;;;;;;15.27;11.30;;;2.70;99.90;;;;;;5031971;28;20426;-75
2021/01/08 02:56:09;;;;;;;12.97;10.80;;;2.70;99.90;;;;;;5031636;28;20421;-75
2021/01/08 02:58:36;;;;;;;15.57;11.17;;;2.70;99.90;;;;;;5032164;28;21091;-74
2021/01/08 03:01:04;;;;;;;13.90;11.10;;;2.70;99.90;;;;;;5031319;28;20406;-74
2021/01/08 03:03:30;;;;;;;16.00;11.60;;;2.70;99.90;;;;;;5029655;28;20523;-75
2021/01/08 03:06:00;;;;;;;12.30;10.83;;;2.60;99.90;;;;;;5031814;28;20460;-75
2021/01/08 03:08:28;;;;;;;13.80;10.27;;;2.70;99.90;;;;;;5031648;28;21087;-74
2021/01/08 03:10:54;;;;;;;12.80;10.63;;;2.70;99.90;;;;;;5030307;28;20418;-74
2021/01/08 03:13:20;;;;;;;12.20;10.13;;;2.60;99.90;;;;;;5063862;28;20473;-75
2021/01/08 03:15:46;;;;;;;12.63;9.10;;;2.70;99.90;;;;;;5031752;28;20421;-74
2021/01/08 03:18:12;;;;;;;10.20;8.90;;;2.60;99.90;;;;;;5030582;28;20466;-76
2021/01/08 03:20:37;;;;;;;13.00;10.77;;;2.60;99.90;;;;;;5030448;28;20172;-74
2021/01/08 03:23:04;;;;;;;12.90;9.33;;;2.60;99.90;;;;;;5030227;28;20200;-75
2021/01/08 03:25:30;;;;;;;11.93;9.23;;;2.60;99.90;;;;;;5031772;28;20172;-74
2021/01/08 03:27:56;;;;;;;12.80;10.40;;;2.60;99.90;;;;;;5031757;28;20441;-75
2021/01/08 03:30:22;;;;;;;13.43;10.10;;;2.60;99.90;;;;;;5030087;28;20452;-75
2021/01/08 03:32:48;;;;;;;12.63;9.70;;;2.60;99.90;;;;;;5031669;28;20199;-75
2021/01/08 03:35:14;;;;;;;12.90;9.90;;;2.60;99.90;;;;;;5031534;28;20533;-74
2021/01/08 03:37:39;;;;;;;11.97;9.63;;;2.60;99.90;;;;;;5031392;28;20249;-75
2021/01/08 03:40:07;;;;;;;15.10;10.70;;;2.60;99.90;;;;;;5030984;28;20262;-74
2021/01/08 03:42:33;;;;;;;13.00;9.67;;;2.60;99.90;;;;;;5034948;28;20166;-75
2021/01/08 03:44:59;;;;;;;13.43;10.00;;;2.60;99.90;;;;;;5035087;28;20914;-74
2021/01/08 03:47:24;;;;;;;13.40;10.40;;;2.60;99.90;;;;;;5035063;28;20462;-75
2021/01/08 03:49:50;;;;;;;14.70;10.83;;;2.60;99.90;;;;;;5034957;28;20206;-74
2021/01/08 03:52:16;;;;;;;13.50;9.53;;;2.60;99.90;;;;;;5034564;28;20186;-74
2021/01/08 03:54:41;;;;;;;13.17;9.53;;;2.60;99.90;;;;;;5033851;28;20596;-75
2021/01/08 03:57:07;;;;;;;14.03;10.97;;;2.60;99.90;;;;;;5033851;28;20206;-75
2021/01/08 03:59:33;;;;;;;15.27;11.03;;;2.60;99.90;;;;;;5034843;28;20190;-75
2021/01/08 04:01:58;;;;;;;15.67;11.40;;;2.70;99.90;;;;;;5034712;28;20168;-75
2021/01/08 04:04:24;;;;;;;11.57;9.90;;;2.70;99.90;;;;;;5066641;28;20195;-74
2021/01/08 04:06:50;;;;;;;13.73;10.23;;;2.70;99.90;;;;;;5034931;28;20171;-74
2021/01/08 04:09:19;;;;;;;15.07;11.03;;;2.70;99.90;;;;;;5034947;28;20221;-74
2021/01/08 04:11:46;;;;;;;12.53;9.80;;;2.70;99.90;;;;;;5033488;28;20925;-74
2021/01/08 04:14:11;;;;;;;11.90;9.60;;;2.70;99.90;;;;;;5034548;28;20441;-74
2021/01/08 04:16:39;;;;;;;13.60;10.43;;;2.80;99.90;;;;;;5034313;28;20951;-75
2021/01/08 04:19:05;;;;;;;15.10;8.93;;;2.70;99.90;;;;;;5034687;28;20188;-74
2021/01/08 04:21:30;;;;;;;12.27;9.70;;;2.70;99.90;;;;;;5034435;28;20436;-74
2021/01/08 04:23:56;;;;;;;14.70;11.30;;;2.70;99.90;;;;;;5036184;28;20253;-75
2021/01/08 04:26:22;;;;;;;12.43;9.70;;;2.70;99.90;;;;;;5036483;28;20211;-75
2021/01/08 04:28:48;;;;;;;12.77;9.30;;;2.70;99.90;;;;;;5035606;28;20180;-75
2021/01/08 04:31:13;;;;;;;12.63;9.50;;;2.80;99.90;;;;;;5034469;28;20190;-75
2021/01/08 04:33:43;;;;;;;13.27;8.93;;;2.70;99.90;;;;;;5034434;28;20195;-75
2021/01/08 04:36:09;;;;;;;9.90;8.90;;;2.80;99.90;;;;;;5034430;28;20779;-74
2021/01/08 04:38:36;;;;;;;13.43;8.90;;;2.70;99.90;;;;;;5034427;28;20417;-74
2021/01/08 04:41:02;;;;;;;11.50;8.83;;;2.70;99.90;;;;;;5034138;28;20402;-74
2021/01/08 04:43:29;;;;;;;11.20;8.43;;;2.70;99.90;;;;;;5034221;28;20437;-75
2021/01/08 04:46:03;;;;;;;10.10;7.40;;;2.70;99.90;;;;;;5034429;28;20402;-74
2021/01/08 04:48:30;;;;;;;10.33;8.30;;;2.70;99.90;;;;;;5034240;28;20495;-74
2021/01/08 04:50:58;;;;;;;9.67;8.00;;;2.60;99.90;;;;;;5032566;28;20921;-74
2021/01/08 04:53:26;;;;;;;8.63;7.23;;;2.60;99.90;;;;;;5033056;28;20441;-75
2021/01/08 04:55:52;;;;;;;9.23;7.50;;;2.70;99.90;;;;;;5033869;28;20785;-73
2021/01/08 04:58:19;;;;;;;10.00;7.80;;;2.70;99.90;;;;;;5033393;28;20462;-74
2021/01/08 05:00:45;;;;;;;9.80;6.70;;;2.70;99.90;;;;;;5033505;28;20497;-74
2021/01/08 05:03:10;;;;;;;10.53;8.30;;;2.80;99.90;;;;;;5032475;28;20434;-74
2021/01/08 05:05:36;;;;;;;9.20;7.50;;;2.80;99.90;;;;;;5033750;28;20456;-74
2021/01/08 05:08:02;;;;;;;9.30;7.33;;;2.80;99.90;;;;;;5032684;28;20180;-74
2021/01/08 05:10:27;;;;;;;9.07;6.90;;;2.90;99.90;;;;;;5033347;28;20168;-74
2021/01/08 05:12:53;;;;;;;8.60;7.17;;;2.80;99.90;;;;;;5032056;28;20196;-74
2021/01/08 05:15:24;;;;;;;10.83;8.50;;;2.80;99.90;;;;;;5033545;28;20176;-74
2021/01/08 05:17:50;;;;;;;11.93;8.87;;;2.80;99.90;;;;;;5033304;28;20199;-75
2021/01/08 05:20:16;;;;;;;8.33;6.80;;;2.70;99.90;;;;;;5033410;28;20407;-74
2021/01/08 05:22:43;;;;;;;7.30;5.97;;;2.80;99.90;;;;;;5033190;28;20192;-74
2021/01/08 05:25:10;;;;;;;9.73;6.80;;;2.90;99.90;;;;;;5031965;28;20183;-75
2021/01/08 05:27:37;;;;;;;9.87;8.07;;;2.80;99.90;;;;;;5033221;28;20410;-75
2021/01/08 05:30:17;;;;;;;8.77;7.00;;;2.80;99.90;;;;;;5032987;28;20437;-75
2021/01/08 05:32:43;;;;;;;11.00;7.70;;;2.80;99.90;;;;;;5033169;28;20455;-75
2021/01/08 05:35:14;;;;;;;10.13;7.40;;;2.80;99.90;;;;;;5031938;28;20432;-75
2021/01/08 05:37:43;;;;;;;9.67;7.83;;;2.70;99.90;;;;;;5032650;28;20458;-74
2021/01/08 05:40:09;;;;;;;9.70;7.70;;;2.70;99.90;;;;;;5033998;28;20766;-75
2021/01/08 05:42:36;;;;;;;10.90;7.10;;;2.70;99.90;;;;;;5031303;28;20443;-75
2021/01/08 05:45:06;;;;;;;9.07;7.67;;;2.70;99.90;;;;;;5033041;28;20774;-74
2021/01/08 05:47:32;;;;;;;9.60;7.80;;;2.60;99.90;;;;;;5032660;28;20477;-74
2021/01/08 05:49:59;;;;;;;9.63;7.50;;;2.60;99.90;;;;;;5033047;28;20458;-74
2021/01/08 05:52:24;;;;;;;9.17;8.17;;;2.70;99.90;;;;;;5034663;28;20625;-75
2021/01/08 05:54:50;;;;;;;8.77;7.53;;;2.80;99.90;;;;;;5032793;28;20421;-75
2021/01/08 05:57:17;;;;;;;11.20;8.70;;;2.80;99.90;;;;;;5032054;28;20500;-75
2021/01/08 05:59:44;;;;;;;8.93;7.60;;;2.70;99.90;;;;;;5031544;28;20175;-74
2021/01/08 06:02:11;;;;;;;10.63;7.43;;;2.80;99.90;;;;;;5032301;28;20405;-74
2021/01/08 06:04:39;;;;;;;10.00;7.50;;;2.80;99.90;;;;;;5031935;28;20446;-74
2021/01/08 06:07:15;;;;;;;8.37;6.30;;;2.80;99.90;;;;;;5032323;28;20923;-75
2021/01/08 06:09:52;;;;;;;9.30;7.80;;;2.70;99.90;;;;;;5031274;28;20414;-75
2021/01/08 06:12:19;;;;;;;9.40;7.07;;;2.70;99.90;;;;;;5032329;28;20445;-75
2021/01/08 06:14:45;;;;;;;9.55;8.20;;;2.60;99.90;;;;;;5031069;28;20417;-74
2021/01/08 06:17:17;;;;;;;10.00;8.80;;;2.70;99.90;;;;;;5031045;28;20202;-74
2021/01/08 06:19:44;;;;;;;9.70;8.70;;;2.50;99.90;;;;;;5030929;28;20525;-74
2021/01/08 06:22:10;;;;;;;10.20;7.93;;;2.60;99.90;;;;;;5031710;28;20513;-75
2021/01/08 06:24:36;;;;;;;11.70;8.90;;;2.60;99.90;;;;;;5031783;28;20482;-75
2021/01/08 06:27:03;;;;;;;10.00;8.20;;;2.60;99.90;;;;;;5035534;28;20811;-75
2021/01/08 06:29:33;;;;;;;11.50;8.90;;;2.60;99.90;;;;;;5031659;28;21085;-75
2021/01/08 06:32:09;;;;;;;12.83;10.10;;;2.60;99.90;;;;;;5050320;28;20421;-74
2021/01/08 06:34:45;;;;;;;10.10;8.57;;;2.60;99.90;;;;;;5023324;28;20449;-74
2021/01/08 06:37:14;;;;;;;9.97;8.73;;;2.70;99.90;;;;;;5030485;28;20458;-75
2021/01/08 06:39:44;;;;;;;10.47;8.40;;;2.70;99.90;;;;;;5030406;28;20410;-76
2021/01/08 06:42:10;;;;;;;13.10;9.90;;;2.80;99.90;;;;;;5031225;28;20803;-76
2021/01/08 06:44:36;;;;;;;10.40;8.50;;;2.70;99.90;;;;;;5063295;28;20465;-75
2021/01/08 06:47:04;;;;;;;11.93;9.60;;;2.80;99.90;;;;;;5034838;28;20438;-76
2021/01/08 06:49:38;;;;;;;10.63;8.83;;;2.80;99.90;;;;;;5032025;28;20460;-74
2021/01/08 06:52:03;;;;;;;10.57;7.70;;;2.80;99.90;;;;;;5030216;28;20454;-74
2021/01/08 06:54:29;;;;;;;10.47;8.37;;;2.80;99.90;;;;;;5028658;28;21005;-75
2021/01/08 06:57:00;;;;;;;10.03;7.83;;;2.90;99.90;;;;;;5031720;28;20209;-74
2021/01/08 06:59:31;;;;;;;11.80;8.40;;;2.70;99.90;;;;;;5031746;28;20182;-74
2021/01/08 07:02:09;;;;;;;11.07;8.20;;;2.80;99.90;;;;;;5030520;28;20783;-74
2021/01/08 07:04:38;;;;;;;10.70;8.70;;;2.70;99.90;;;;;;5031476;28;20441;-75
2021/01/08 07:07:06;;;;;;;11.03;8.93;;;2.80;99.90;;;;;;5031760;28;20548;-75
2021/01/08 07:09:33;;;;;;;11.70;9.40;;;2.70;99.90;;;;;;5029705;28;20517;-74
2021/01/08 07:11:59;;;;;;;10.00;8.50;;;2.80;99.90;;;;;;5030896;28;20421;-75
2021/01/08 07:14:25;;;;;;;9.60;8.33;;;2.80;99.90;;;;;;5031703;28;20781;-74
2021/01/08 07:16:52;;;;;;;10.07;8.23;;;2.80;99.90;;;;;;5035882;28;20454;-74
2021/01/08 07:19:20;;;;;;;10.53;8.60;;;2.70;99.90;;;;;;5035317;28;20472;-74
2021/01/08 07:21:50;;;;;;;9.30;7.80;;;2.80;99.90;;;;;;5035107;28;20429;-74
2021/01/08 07:24:19;;;;;;;9.43;8.00;;;2.70;99.90;;;;;;5035507;28;20438;-74
2021/01/08 07:26:46;;;;;;;11.93;9.13;;;2.70;99.90;;;;;;5033960;28;20513;-74
2021/01/08 07:29:12;;;;;;;9.83;7.80;;;2.70;99.90;;;;;;5035157;28;20421;-74
2021/01/08 07:31:40;;;;;;;12.83;10.07;;;2.70;99.90;;;;;;5034787;28;20449;-74
2021/01/08 07:34:08;;;;;;;12.13;9.50;;;2.70;99.90;;;;;;5035430;28;20454;-74
2021/01/08 07:36:35;;;;;;;9.70;8.10;;;2.80;99.90;;;;;;5034618;28;20452;-75
2021/01/08 07:39:02;;;;;;;10.93;8.53;;;2.80;99.90;;;;;;5034097;28;20958;-76
2021/01/08 07:41:37;;;;;;;9.73;8.53;;;2.90;99.90;;;;;;5035253;28;20446;-74
2021/01/08 07:44:24;;;;;;;10.50;8.13;;;2.80;99.90;;;;;;5034662;28;20433;-74
2021/01/08 07:46:50;;;;;;;12.40;9.00;;;2.70;99.90;;;;;;5034256;28;20504;-74
2021/01/08 07:49:27;;;;;;;11.10;9.17;;;2.80;99.90;;;;;;5034406;28;20513;-74
2021/01/08 07:51:53;;;;;;;11.57;9.43;;;2.90;99.90;;;;;;5034430;28;20644;-74
2021/01/08 07:54:55;;;;;;;12.80;10.30;;;2.90;99.90;;;;;;5035100;28;20448;-75
2021/01/08 07:57:21;;;;;;;12.60;9.47;;;2.90;99.90;;;;;;5050317;28;20458;-74
2021/01/08 07:59:46;;;;;;;12.83;9.33;;;2.90;99.90;;;;;;5034577;28;20414;-74
2021/01/08 08:02:12;;;;;;;13.93;10.27;;;2.90;99.90;;;;;;5035367;28;20177;-75
2021/01/08 08:04:40;;;;;;;11.27;9.70;;;2.80;99.90;;;;;;5034614;28;20329;-74
2021/01/08 08:07:06;;;;;;;11.37;8.93;;;2.90;99.90;;;;;;5034539;28;20414;-74
2021/01/08 08:09:31;;;;;;;11.30;9.00;;;2.90;99.90;;;;;;5034442;28;20453;-75
2021/01/08 08:11:57;;;;;;;11.43;10.23;;;3.00;99.90;;;;;;5034371;28;20446;-74
2021/01/08 08:14:23;;;;;;;12.37;9.10;;;3.00;99.90;;;;;;5033336;28;20199;-75
2021/01/08 08:16:49;;;;;;;11.47;9.90;;;3.00;99.90;;;;;;5034308;28;20672;-74
2021/01/08 08:19:16;;;;;;;11.87;9.93;;;3.00;99.90;;;;;;5034199;28;20162;-74
2021/01/08 08:21:49;;;;;;;10.23;8.97;;;3.00;99.90;;;;;;5032463;28;20416;-74
2021/01/08 08:24:16;;;;;;;10.97;8.77;;;3.10;99.90;;;;;;5033319;28;20445;-74
2021/01/08 08:26:43;;;;;;;20.80;14.93;;;3.10;99.90;;;;;;5034112;28;20418;-74
2021/01/08 08:29:14;;;;;;;16.50;13.33;;;3.10;99.90;;;;;;5034358;28;20938;-75
2021/01/08 08:31:42;;;;;;;10.30;8.90;;;3.10;99.90;;;;;;5034084;28;20476;-74
2021/01/08 08:34:10;;;;;;;13.60;9.33;;;3.10;99.90;;;;;;5034267;28;20440;-74
2021/01/08 08:36:36;;;;;;;14.10;10.23;;;3.10;99.90;;;;;;5034103;28;20449;-74
2021/01/08 08:39:15;;;;;;;11.73;9.83;;;3.00;99.90;;;;;;5033735;28;20418;-74
2021/01/08 08:41:45;;;;;;;11.93;10.03;;;3.10;99.90;;;;;;5033181;28;20414;-74
2021/01/08 08:44:18;;;;;;;11.70;10.50;;;3.10;99.90;;;;;;5033231;28;20871;-74
2021/01/08 08:46:51;;;;;;;17.80;11.47;;;3.20;99.90;;;;;;5033547;28;20453;-74
2021/01/08 08:49:20;;;;;;;15.70;11.60;;;3.20;99.90;;;;;;5033843;28;20453;-73
2021/01/08 08:51:51;;;;;;;16.60;11.37;;;3.10;99.90;;;;;;5033091;28;20975;-74
2021/01/08 08:54:18;;;;;;;14.40;10.50;;;3.20;99.90;;;;;;5033480;28;20449;-74
2021/01/08 08:56:49;;;;;;;14.70;11.20;;;3.20;99.90;;;;;;5032730;28;20454;-74
2021/01/08 08:59:16;;;;;;;15.13;12.37;;;3.30;99.90;;;;;;5021652;28;20787;-74
2021/01/08 09:01:42;;;;;;;16.73;11.40;;;3.30;99.90;;;;;;5031902;28;20467;-75
2021/01/08 09:04:09;;;;;;;15.57;12.23;;;3.30;99.90;;;;;;5033290;28;20501;-74
2021/01/08 09:06:43;;;;;;;17.40;12.50;;;3.30;99.90;;;;;;5032755;28;20414;-74
2021/01/08 09:09:23;;;;;;;18.53;12.60;;;3.40;99.90;;;;;;5033271;28;20426;-74
2021/01/08 09:11:58;;;;;;;15.80;10.40;;;3.40;99.90;;;;;;5032831;28;20853;-75
2021/01/08 09:14:28;;;;;;;17.90;12.60;;;3.40;99.90;;;;;;5033042;28;20472;-74
2021/01/08 09:16:55;;;;;;;18.07;13.30;;;3.50;99.90;;;;;;5033205;28;20529;-74
2021/01/08 09:19:38;;;;;;;16.40;11.10;;;3.60;99.90;;;;;;5033322;28;20398;-74
2021/01/08 09:22:05;;;;;;;20.80;13.10;;;3.60;99.90;;;;;;5018332;28;20985;-74
2021/01/08 09:24:32;;;;;;;18.43;13.57;;;3.70;99.90;;;;;;5033360;28;20574;-74
2021/01/08 09:27:00;;;;;;;18.00;13.13;;;3.70;99.90;;;;;;5051058;28;20424;-74
2021/01/08 09:29:30;;;;;;;20.10;12.10;;;3.70;99.90;;;;;;5052379;28;20415;-74
2021/01/08 09:31:57;;;;;;;16.83;13.03;;;3.70;99.90;;;;;;5034370;28;20501;-74
2021/01/08 09:34:24;;;;;;;15.93;12.43;;;3.70;99.90;;;;;;5032870;28;20434;-74
2021/01/08 09:36:50;;;;;;;14.40;10.87;;;3.70;99.90;;;;;;5032309;28;20966;-74
2021/01/08 09:39:17;;;;;;;16.40;11.57;;;3.90;99.90;;;;;;5032041;28;20398;-75
2021/01/08 09:41:43;;;;;;;14.57;10.90;;;3.90;99.90;;;;;;5032060;28;20563;-75
2021/01/08 09:44:11;;;;;;;18.10;12.37;;;4.00;99.90;;;;;;5032484;28;20438;-75
2021/01/08 09:46:53;;;;;;;16.20;12.27;;;4.00;99.90;;;;;;5032172;28;20438;-75
2021/01/08 09:49:19;;;;;;;14.60;10.47;;;4.10;99.90;;;;;;5032482;28;20437;-74
2021/01/08 09:51:44;;;;;;;16.40;11.37;;;4.10;99.90;;;;;;5031231;28;20410;-74
2021/01/08 09:54:10;;;;;;;14.90;11.23;;;4.10;99.90;;;;;;5031455;28;20192;-75
2021/01/08 09:56:36;;;;;;;16.87;11.87;;;4.10;99.90;;;;;;5032243;28;20589;-75
2021/01/08 09:59:13;;;;;;;16.33;10.50;;;4.10;99.90;;;;;;5032123;28;20258;-75
2021/01/08 10:01:58;;;;;;;15.23;11.17;;;4.20;99.90;;;;;;5031447;28;20171;-75
2021/01/08 10:04:33;;;;;;;15.87;12.03;;;4.30;99.90;;;;;;5025823;28;20461;-75
2021/01/08 10:07:01;;;;;;;16.63;11.50;;;4.30;99.90;;;;;;5017033;28;20994;-74
2021/01/08 10:09:27;;;;;;;14.60;10.93;;;4.30;99.90;;;;;;5031726;28;20780;-75
2021/01/08 10:12:01;;;;;;;16.13;10.23;;;4.40;99.90;;;;;;5032028;28;20437;-75
2021/01/08 10:14:33;;;;;;;13.63;11.13;;;4.40;99.90;;;;;;5031998;28;20438;-74
2021/01/08 10:17:11;;;;;;;19.23;12.00;;;4.40;99.90;;;;;;5016794;28;20612;-74
2021/01/08 10:19:42;;;;;;;15.90;12.40;;;4.40;99.90;;;;;;5031473;28;20414;-74
2021/01/08 10:22:08;;;;;;;16.93;11.67;;;4.30;99.90;;;;;;5030363;28;20935;-74
2021/01/08 10:24:34;;;;;;;18.50;10.07;;;4.40;99.90;;;;;;5031764;28;20430;-74
2021/01/08 10:27:00;;;;;;;13.83;10.50;;;4.30;99.90;;;;;;5032160;28;20450;-74
2021/01/08 10:29:44;;;;;;;14.27;10.37;;;4.40;99.90;;;;;;5032181;28;20168;-74
2021/01/08 10:32:12;;;;;;;14.50;10.00;;;4.40;99.90;;;;;;5032011;28;20406;-74
2021/01/08 10:34:42;;;;;;;16.30;12.37;;;4.50;99.90;;;;;;5031877;28;20441;-75
2021/01/08 10:37:19;;;;;;;16.23;12.97;;;4.50;99.90;;;;;;5031765;28;20452;-75
2021/01/08 10:39:46;;;;;;;14.33;11.87;;;4.50;99.90;;;;;;5064138;28;20414;-74
2021/01/08 10:42:14;;;;;;;18.87;12.40;;;4.60;99.90;;;;;;5031705;28;20413;-74
2021/01/08 10:44:39;;;;;;;17.33;11.63;;;4.60;99.90;;;;;;5031907;28;20418;-74
2021/01/08 10:47:05;;;;;;;12.23;10.70;;;4.60;99.90;;;;;;5031795;28;20429;-74
2021/01/08 10:49:31;;;;;;;11.70;10.20;;;4.60;99.90;;;;;;5033355;28;20167;-75
2021/01/08 10:51:57;;;;;;;14.43;10.33;;;4.70;99.90;;;;;;5035675;28;20476;-74
2021/01/08 10:54:22;;;;;;;14.67;9.53;;;4.80;99.90;;;;;;5036004;28;20669;-74
2021/01/08 10:56:49;;;;;;;12.87;9.50;;;4.80;99.90;;;;;;5035793;28;20199;-75
2021/01/08 10:59:15;;;;;;;10.53;9.43;;;4.80;99.90;;;;;;5035987;28;20237;-75
2021/01/08 11:01:44;;;;;;;12.27;9.57;;;4.80;99.90;;;;;;5035784;28;20895;-75
2021/01/08 11:04:11;;;;;;;10.50;8.40;;;4.80;99.90;;;;;;5035808;28;20422;-75
2021/01/08 11:06:40;;;;;;;11.40;9.30;;;4.80;99.90;;;;;;5035550;28;20406;-75
2021/01/08 11:09:06;;;;;;;10.67;9.47;;;4.80;99.90;;;;;;5035818;28;20523;-75
2021/01/08 11:11:33;;;;;;;9.77;8.77;;;4.80;99.90;;;;;;5035414;28;20402;-73
2021/01/08 11:13:59;;;;;;;11.43;9.07;;;4.90;99.90;;;;;;5035893;28;20482;-75
2021/01/08 11:16:25;;;;;;;11.30;8.97;;;4.90;99.90;;;;;;5024223;28;20403;-75
2021/01/08 11:18:50;;;;;;;9.80;8.53;;;5.00;99.90;;;;;;5035423;28;20180;-75
2021/01/08 11:21:23;;;;;;;10.63;8.60;;;5.10;99.90;;;;;;5035587;28;20412;-75
2021/01/08 11:23:49;;;;;;;10.00;8.20;;;5.10;99.90;;;;;;5035178;28;20194;-75
2021/01/08 11:26:25;;;;;;;12.10;9.37;;;5.00;99.90;;;;;;5033317;28;20418;-75
2021/01/08 11:28:51;;;;;;;9.77;8.50;;;5.10;99.90;;;;;;5034040;28;20418;-75
2021/01/08 11:31:17;;;;;;;14.90;11.50;;;5.20;99.90;;;;;;5034891;28;20425;-75
2021/01/08 11:33:45;;;;;;;13.50;10.00;;;5.20;99.90;;;;;;5034968;28;20450;-75
2021/01/08 11:36:11;;;;;;;11.70;10.50;;;5.30;99.90;;;;;;5035165;28;20436;-74
2021/01/08 11:38:37;;;;;;;14.03;10.10;;;5.20;99.90;;;;;;5034913;28;20898;-75
2021/01/08 11:41:03;;;;;;;12.40;9.90;;;5.20;99.90;;;;;;5034956;28;20433;-75
2021/01/08 11:43:29;;;;;;;13.53;10.40;;;5.20;99.90;;;;;;5035010;28;20947;-74
2021/01/08 11:45:54;;;;;;;11.47;9.80;;;5.20;99.90;;;;;;5035115;28;20282;-75
2021/01/08 11:48:20;;;;;;;15.83;11.00;;;5.00;99.90;;;;;;5033917;28;20175;-76
2021/01/08 11:50:45;;;;;;;13.10;11.10;;;4.80;99.90;;;;;;5034612;28;20172;-74
2021/01/08 11:53:11;;;;;;;15.87;11.50;;;4.30;99.90;;;;;;5035217;28;20191;-74
2021/01/08 11:55:36;;;;;;;15.83;12.30;;;4.00;99.90;;;;;;5034907;28;20179;-74
2021/01/08 11:58:02;;;;;;;16.20;11.20;;;4.00;99.90;;;;;;5034722;28;20230;-75
2021/01/08 12:00:28;;;;;;;16.20;11.70;;;4.20;99.90;;;;;;5034464;28;20175;-76
2021/01/08 12:02:53;;;;;;;14.90;12.03;;;4.40;99.90;;;;;;5033607;28;20210;-75
2021/01/08 12:05:19;;;;;;;12.77;11.33;;;4.60;99.90;;;;;;5033909;28;20178;-75
2021/01/08 12:07:45;;;;;;;17.03;12.03;;;4.60;99.90;;;;;;5034408;28;20213;-75
2021/01/08 12:10:10;;;;;;;17.53;10.50;;;4.70;99.90;;;;;;5033090;28;20171;-74
2021/01/08 12:12:36;;;;;;;13.50;10.17;;;4.80;99.90;;;;;;5034050;28;20269;-74
2021/01/08 12:15:03;;;;;;;14.73;11.20;;;4.70;99.90;;;;;;5034310;28;20172;-75
2021/01/08 12:17:29;;;;;;;18.80;11.80;;;4.80;99.90;;;;;;5033779;28;20545;-75
2021/01/08 12:19:54;;;;;;;14.43;12.10;;;4.80;99.90;;;;;;5027458;28;20978;-74
2021/01/08 12:22:20;;;;;;;18.07;11.80;;;4.80;99.90;;;;;;5031834;28;20598;-75
2021/01/08 12:24:46;;;;;;;14.47;11.70;;;4.80;99.90;;;;;;5044594;28;20248;-75
2021/01/08 12:27:11;;;;;;;16.00;11.73;;;4.90;99.90;;;;;;5038923;28;20233;-76
2021/01/08 12:29:37;;;;;;;15.90;11.60;;;4.80;99.90;;;;;;5033612;28;20593;-74
2021/01/08 12:32:04;;;;;;;17.30;12.67;;;4.80;99.90;;;;;;5033281;28;20181;-74
2021/01/08 12:34:30;;;;;;;14.60;10.63;;;4.90;99.90;;;;;;5033960;28;20282;-75
2021/01/08 12:36:56;;;;;;;13.57;10.67;;;4.80;99.90;;;;;;5034061;28;21026;-75
2021/01/08 12:39:22;;;;;;;15.87;13.03;;;4.70;99.90;;;;;;5066581;28;20652;-75
2021/01/08 12:41:47;;;;;;;19.53;12.43;;;4.80;99.90;;;;;;5032288;28;20426;-75
2021/01/08 12:44:13;;;;;;;15.10;11.37;;;4.80;99.90;;;;;;5033622;28;20202;-76
2021/01/08 12:46:38;;;;;;;19.83;11.20;;;4.70;99.90;;;;;;5032868;28;20195;-75